Time;durP1;ratioP1;P1;durP2;ratioP2;P2;SDS_P1;SDS_P2;PMS_P1;PMS_P2;Temp;Humidity;BMP_temperature;BMP_pressure;BME280_temperature;BME280_humidity;BME280_pressure;Samples;Min_cycle;Max_cycle;Signal;HPM_P1;HPM_P2
2022/12/27 00:02:02;;;;;;;6.30;5.15;;;11.20;99.90;;;;;;5074374;28;20020;-77
2022/12/27 00:04:28;;;;;;;8.07;5.53;;;11.10;99.90;;;;;;5088972;28;20059;-77
2022/12/27 00:06:55;;;;;;;6.55;5.18;;;11.00;99.90;;;;;;5094761;28;20048;-77
2022/12/27 00:09:21;;;;;;;8.45;5.45;;;11.10;99.90;;;;;;5094607;28;20028;-77
2022/12/27 00:11:47;;;;;;;7.07;5.38;;;11.20;99.90;;;;;;5094317;28;20036;-77
2022/12/27 00:14:12;;;;;;;6.68;5.45;;;11.10;99.90;;;;;;5094471;28;20471;-77
2022/12/27 00:16:38;;;;;;;6.90;5.63;;;11.10;99.90;;;;;;5094515;28;20043;-77
2022/12/27 00:19:04;;;;;;;8.45;5.85;;;11.20;99.90;;;;;;5094382;28;20016;-77
2022/12/27 00:21:30;;;;;;;7.88;5.97;;;11.10;99.90;;;;;;5088076;28;20024;-77
2022/12/27 00:23:58;;;;;;;8.05;5.38;;;11.10;99.90;;;;;;5074104;28;20610;-77
2022/12/27 00:26:28;;;;;;;7.60;5.63;;;11.20;99.90;;;;;;5074025;28;20108;-77
2022/12/27 00:28:54;;;;;;;9.43;5.93;;;11.20;99.90;;;;;;5074124;28;20068;-77
2022/12/27 00:31:22;;;;;;;8.90;5.72;;;11.20;99.90;;;;;;5073703;28;20023;-77
2022/12/27 00:33:50;;;;;;;10.75;7.55;;;11.20;99.90;;;;;;5073742;28;20060;-77
2022/12/27 00:36:18;;;;;;;11.18;7.05;;;11.10;99.90;;;;;;5073588;28;20016;-77
2022/12/27 00:38:45;;;;;;;10.93;7.80;;;11.20;99.90;;;;;;5073946;28;20016;-77
2022/12/27 00:41:12;;;;;;;11.73;7.55;;;11.10;99.90;;;;;;5073633;28;20021;-78
2022/12/27 00:43:37;;;;;;;11.77;8.43;;;11.20;99.90;;;;;;5073612;28;20159;-77
2022/12/27 00:46:04;;;;;;;12.48;8.38;;;11.10;99.90;;;;;;5073539;28;20078;-77
2022/12/27 00:48:30;;;;;;;12.02;8.10;;;11.10;99.90;;;;;;5073759;28;20082;-77
2022/12/27 00:51:02;;;;;;;13.15;8.05;;;11.00;99.90;;;;;;5073512;28;20017;-77
2022/12/27 00:53:28;;;;;;;11.57;7.80;;;11.00;99.90;;;;;;5073664;28;20025;-77
2022/12/27 00:55:55;;;;;;;11.40;7.60;;;11.10;99.90;;;;;;5073539;28;20024;-77
2022/12/27 00:58:20;;;;;;;10.50;7.38;;;11.10;99.90;;;;;;5073293;28;20047;-77
2022/12/27 01:00:47;;;;;;;10.73;7.22;;;11.20;99.90;;;;;;5073007;28;20025;-77
2022/12/27 01:03:13;;;;;;;10.02;6.40;;;11.10;99.90;;;;;;5077507;28;20036;-77
2022/12/27 01:05:39;;;;;;;10.35;6.47;;;11.20;99.90;;;;;;5093341;28;20492;-77
2022/12/27 01:08:05;;;;;;;9.10;5.93;;;11.20;99.90;;;;;;5092229;28;20078;-77
2022/12/27 01:10:31;;;;;;;9.57;6.43;;;11.20;99.90;;;;;;5093584;28;20059;-77
2022/12/27 01:12:59;;;;;;;7.90;5.65;;;11.20;99.90;;;;;;5093190;28;20028;-77
2022/12/27 01:15:25;;;;;;;8.38;5.80;;;11.20;99.90;;;;;;5093070;28;20016;-77
2022/12/27 01:17:51;;;;;;;6.65;5.07;;;11.30;99.90;;;;;;5093503;28;20538;-77
2022/12/27 01:20:17;;;;;;;6.75;5.15;;;11.30;99.90;;;;;;5093079;28;20099;-77
2022/12/27 01:22:42;;;;;;;7.38;4.90;;;11.30;99.90;;;;;;5077292;28;20028;-77
2022/12/27 01:25:08;;;;;;;6.72;5.28;;;11.30;99.90;;;;;;5073122;28;20029;-77
2022/12/27 01:27:34;;;;;;;6.68;5.28;;;11.30;99.90;;;;;;5072429;28;20083;-77
2022/12/27 01:30:00;;;;;;;6.20;4.65;;;11.30;99.90;;;;;;5073045;28;20056;-77
2022/12/27 01:32:27;;;;;;;5.38;4.22;;;11.30;99.90;;;;;;5072383;28;20520;-77
2022/12/27 01:34:53;;;;;;;6.50;4.70;;;11.30;99.90;;;;;;5072614;28;20023;-77
2022/12/27 01:37:19;;;;;;;5.55;3.92;;;11.30;99.90;;;;;;5072331;28;20025;-77
2022/12/27 01:39:44;;;;;;;6.35;4.20;;;11.30;99.90;;;;;;5072672;28;20473;-77
2022/12/27 01:45:23;;;;;;;5.25;4.18;;;11.30;99.90;;;;;;5072686;28;20145;-77
2022/12/27 01:48:18;;;;;;;4.78;3.78;;;11.30;99.90;;;;;;5071832;28;20060;-77
2022/12/27 01:50:59;;;;;;;5.85;3.28;;;11.30;99.90;;;;;;5072557;28;20029;-77
2022/12/27 01:53:32;;;;;;;5.45;3.63;;;11.30;99.90;;;;;;5072710;28;20024;-78
2022/12/27 01:56:08;;;;;;;4.80;3.50;;;11.30;99.90;;;;;;5072580;28;20043;-77
2022/12/27 01:58:39;;;;;;;4.38;3.70;;;11.30;99.90;;;;;;5072365;28;20021;-77
2022/12/27 02:01:10;;;;;;;3.78;2.90;;;11.30;99.90;;;;;;5072104;28;20025;-77
2022/12/27 02:03:43;;;;;;;3.47;2.88;;;11.30;99.90;;;;;;5079020;28;20047;-77
2022/12/27 02:06:10;;;;;;;4.43;3.63;;;11.30;99.90;;;;;;5092669;28;20016;-77
2022/12/27 02:08:47;;;;;;;3.97;3.25;;;11.30;99.90;;;;;;5092693;28;20020;-77
2022/12/27 02:11:15;;;;;;;4.05;3.60;;;11.30;99.90;;;;;;5092041;28;20020;-77
2022/12/27 02:13:44;;;;;;;4.63;3.50;;;11.30;99.90;;;;;;5092371;28;20023;-77
2022/12/27 02:16:13;;;;;;;3.67;3.00;;;11.30;99.90;;;;;;5092094;28;20028;-77
2022/12/27 02:18:38;;;;;;;4.38;3.28;;;11.30;99.90;;;;;;5092306;28;20028;-77
2022/12/27 02:21:16;;;;;;;4.72;3.67;;;11.30;99.90;;;;;;5089982;28;20546;-77
2022/12/27 02:24:03;;;;;;;4.00;3.47;;;11.30;99.90;;;;;;5072108;28;20020;-77
2022/12/27 02:26:38;;;;;;;4.28;3.42;;;11.30;99.90;;;;;;5071905;28;20033;-78
2022/12/27 02:29:26;;;;;;;4.65;3.42;;;11.30;99.90;;;;;;5072138;28;20051;-77
2022/12/27 02:32:06;;;;;;;5.25;3.80;;;11.20;99.90;;;;;;5071873;28;20063;-77
2022/12/27 02:34:41;;;;;;;4.43;3.47;;;11.10;99.90;;;;;;5072330;28;20067;-77
2022/12/27 02:37:11;;;;;;;5.15;3.40;;;11.00;99.90;;;;;;5072018;28;20044;-77
2022/12/27 02:39:41;;;;;;;3.78;3.35;;;11.10;99.90;;;;;;5072079;28;20035;-77
2022/12/27 02:53:25;;;;;;;3.75;3.33;;;11.00;99.90;;;;;;5075742;28;20039;-77
2022/12/27 02:59:16;;;;;;;3.92;3.15;;;10.90;99.90;;;;;;5075781;28;20036;-77
2022/12/27 03:05:13;;;;;;;3.70;3.22;;;10.80;99.90;;;;;;5092433;28;20035;-77
2022/12/27 03:08:02;;;;;;;4.45;3.38;;;10.80;99.90;;;;;;5093867;28;20111;-78
2022/12/27 03:17:06;;;;;;;4.10;2.90;;;10.90;99.90;;;;;;5095466;28;20077;-77
2022/12/27 03:33:31;;;;;;;4.25;3.42;;;10.80;99.90;;;;;;5074945;28;20028;-77
2022/12/27 03:38:58;;;;;;;4.70;3.58;;;10.80;99.90;;;;;;5075262;28;20453;-77
2022/12/27 03:44:23;;;;;;;5.07;3.28;;;10.80;99.90;;;;;;5075010;28;20043;-77
2022/12/27 03:46:59;;;;;;;4.90;3.67;;;10.80;99.90;;;;;;5074385;28;20095;-77
2022/12/27 03:50:06;;;;;;;3.97;3.40;;;10.90;99.90;;;;;;5074961;28;20019;-77
2022/12/27 03:52:35;;;;;;;4.40;3.47;;;10.90;99.90;;;;;;5060938;28;20194;-77
2022/12/27 03:55:01;;;;;;;4.40;3.50;;;10.90;99.90;;;;;;5074901;28;20092;-77
2022/12/27 03:57:28;;;;;;;4.10;3.70;;;10.90;99.90;;;;;;5074589;28;20044;-77
2022/12/27 03:59:54;;;;;;;3.90;3.50;;;11.00;99.90;;;;;;5074158;28;20016;-77
2022/12/27 04:02:20;;;;;;;4.20;3.42;;;11.00;99.90;;;;;;5074354;28;20531;-77
2022/12/27 04:04:46;;;;;;;4.13;3.13;;;11.00;99.90;;;;;;5091362;28;20024;-77
2022/12/27 04:07:13;;;;;;;4.18;3.38;;;11.00;99.90;;;;;;5094414;28;20115;-77
2022/12/27 04:37:01;;;;;;;4.35;2.92;;;11.00;99.90;;;;;;5054753;28;20155;-78
2022/12/27 04:39:27;;;;;;;5.03;3.03;;;11.00;99.90;;;;;;5074188;28;20107;-78
2022/12/27 04:55:57;;;;;;;3.60;3.22;;;11.00;99.90;;;;;;5073729;28;20036;-78
2022/12/27 04:58:22;;;;;;;4.55;3.75;;;11.00;99.90;;;;;;5073185;28;20025;-78
2022/12/27 05:03:33;;;;;;;5.05;3.35;;;11.00;99.90;;;;;;5079762;28;20507;-78
2022/12/27 05:05:59;;;;;;;5.03;3.80;;;11.00;99.90;;;;;;5093711;28;20047;-78
2022/12/27 05:14:00;;;;;;;4.03;3.42;;;11.10;99.90;;;;;;5093794;28;20134;-78
2022/12/27 05:16:31;;;;;;;4.68;3.42;;;11.10;99.90;;;;;;5093173;28;20025;-78
2022/12/27 05:18:57;;;;;;;4.60;3.55;;;11.10;99.90;;;;;;5093107;28;20016;-78
2022/12/27 05:21:24;;;;;;;3.83;3.35;;;11.00;99.90;;;;;;5088503;28;20021;-78
2022/12/27 05:26:34;;;;;;;5.28;3.60;;;11.00;99.90;;;;;;5072406;28;20451;-78
2022/12/27 05:29:00;;;;;;;5.50;3.60;;;11.00;99.90;;;;;;5072616;28;20028;-78
2022/12/27 05:31:27;;;;;;;5.57;4.10;;;11.00;99.90;;;;;;5072635;28;20021;-78
2022/12/27 05:33:54;;;;;;;4.53;3.58;;;11.10;99.90;;;;;;5072757;28;20051;-78
2022/12/27 05:36:20;;;;;;;4.38;3.65;;;11.10;99.90;;;;;;5072622;28;20500;-78
2022/12/27 05:38:46;;;;;;;4.50;3.88;;;11.10;99.90;;;;;;5072427;28;20036;-78
2022/12/27 05:41:12;;;;;;;4.43;4.00;;;11.10;99.90;;;;;;5072621;28;20027;-78
2022/12/27 05:43:38;;;;;;;4.65;3.80;;;11.10;99.90;;;;;;5072493;28;20033;-78
2022/12/27 05:46:09;;;;;;;4.88;3.78;;;11.10;99.90;;;;;;5072574;28;20398;-78
2022/12/27 05:48:35;;;;;;;4.78;3.40;;;11.10;99.90;;;;;;5072632;28;20024;-78
2022/12/27 05:51:06;;;;;;;4.85;3.30;;;11.10;99.90;;;;;;5072688;28;20111;-78
2022/12/27 05:53:32;;;;;;;5.55;3.90;;;11.10;99.90;;;;;;5072376;28;20035;-78
2022/12/27 05:55:58;;;;;;;4.70;3.83;;;11.10;99.90;;;;;;5072415;28;20025;-78
2022/12/27 05:58:24;;;;;;;4.95;3.78;;;11.10;99.90;;;;;;5072261;28;20024;-78
2022/12/27 06:00:50;;;;;;;3.95;3.33;;;11.00;99.90;;;;;;5072306;28;20089;-78
2022/12/27 06:03:16;;;;;;;4.78;3.90;;;11.00;99.90;;;;;;5076651;28;20481;-78
2022/12/27 06:05:42;;;;;;;3.78;3.38;;;11.10;99.90;;;;;;5092915;28;20077;-78
2022/12/27 06:08:08;;;;;;;5.75;3.20;;;11.10;99.90;;;;;;5092715;28;20473;-78
2022/12/27 06:10:34;;;;;;;4.05;3.58;;;11.10;99.90;;;;;;5092672;28;20069;-78
2022/12/27 06:13:00;;;;;;;5.45;3.67;;;11.00;99.90;;;;;;5092172;28;20124;-78
2022/12/27 06:15:26;;;;;;;4.00;3.60;;;11.00;99.90;;;;;;5092496;28;20020;-78
2022/12/27 06:17:52;;;;;;;4.03;3.30;;;11.00;99.90;;;;;;5092501;28;20024;-78
2022/12/27 06:20:18;;;;;;;5.70;3.92;;;11.00;99.90;;;;;;5092657;28;20016;-78
2022/12/27 06:22:43;;;;;;;4.10;3.55;;;11.00;99.90;;;;;;5076124;28;20488;-78
2022/12/27 06:25:09;;;;;;;4.93;3.40;;;11.00;99.90;;;;;;5072190;28;20031;-78
2022/12/27 06:27:35;;;;;;;3.97;3.15;;;11.00;99.90;;;;;;5071718;28;20078;-78
2022/12/27 06:30:01;;;;;;;4.53;3.50;;;11.00;99.90;;;;;;5072267;28;20059;-78
2022/12/27 06:32:27;;;;;;;4.28;3.60;;;10.90;99.90;;;;;;5071906;28;20127;-78
2022/12/27 06:34:53;;;;;;;3.70;3.17;;;11.00;99.90;;;;;;5072042;28;20017;-79
2022/12/27 06:37:18;;;;;;;4.60;2.90;;;11.00;99.90;;;;;;5071938;28;20450;-78
2022/12/27 06:39:44;;;;;;;3.42;3.03;;;11.00;99.90;;;;;;5071696;28;20098;-78
2022/12/27 06:42:10;;;;;;;4.00;3.30;;;10.90;99.90;;;;;;5071735;28;20179;-78
2022/12/27 06:44:35;;;;;;;3.17;2.75;;;10.90;99.90;;;;;;5072229;28;20428;-78
2022/12/27 06:47:01;;;;;;;3.20;2.95;;;10.90;99.90;;;;;;5071852;28;20031;-78
2022/12/27 06:49:28;;;;;;;3.78;3.05;;;10.80;99.90;;;;;;5072015;28;20533;-78
2022/12/27 06:51:54;;;;;;;3.50;3.20;;;10.80;99.90;;;;;;5071838;28;20477;-78
2022/12/27 06:54:20;;;;;;;3.58;2.97;;;10.80;99.90;;;;;;5071664;28;20024;-78
2022/12/27 06:56:45;;;;;;;3.53;3.05;;;10.90;99.90;;;;;;5071961;28;20031;-78
2022/12/27 06:59:11;;;;;;;3.10;2.83;;;10.90;99.90;;;;;;5071925;28;20381;-78
2022/12/27 07:01:37;;;;;;;3.63;3.25;;;10.90;99.90;;;;;;5071531;28;20064;-78
2022/12/27 07:04:02;;;;;;;4.20;3.15;;;10.90;99.90;;;;;;5082653;28;20369;-78
2022/12/27 07:06:29;;;;;;;3.72;3.13;;;10.90;99.90;;;;;;5092071;28;20499;-78
2022/12/27 07:08:56;;;;;;;4.95;3.50;;;10.90;99.90;;;;;;5091637;28;20025;-78
2022/12/27 07:11:23;;;;;;;3.10;2.80;;;10.90;99.90;;;;;;5092173;28;20071;-78
2022/12/27 07:13:51;;;;;;;3.67;3.30;;;10.90;99.90;;;;;;5091970;28;20028;-78
2022/12/27 07:16:25;;;;;;;4.55;3.92;;;10.90;99.90;;;;;;5091647;28;20031;-78
2022/12/27 07:18:51;;;;;;;4.88;3.95;;;10.90;99.90;;;;;;5091738;28;20024;-78
2022/12/27 07:21:19;;;;;;;3.83;3.45;;;10.90;99.90;;;;;;5088077;28;20059;-78
2022/12/27 07:23:45;;;;;;;3.83;3.25;;;11.00;99.90;;;;;;5071300;28;20017;-78
2022/12/27 07:26:14;;;;;;;4.00;3.38;;;11.00;99.90;;;;;;5071641;28;20032;-78
2022/12/27 07:28:40;;;;;;;4.50;3.83;;;11.00;99.90;;;;;;5071371;28;20044;-78
2022/12/27 07:31:17;;;;;;;4.93;3.80;;;11.00;99.90;;;;;;5071276;28;20032;-78
2022/12/27 07:33:43;;;;;;;4.32;3.63;;;10.90;99.90;;;;;;5071451;28;20035;-78
2022/12/27 07:36:13;;;;;;;3.65;3.20;;;10.90;99.90;;;;;;5075145;28;20024;-78
2022/12/27 07:38:39;;;;;;;4.35;3.58;;;10.90;99.90;;;;;;5074668;28;20020;-78
2022/12/27 07:41:04;;;;;;;4.72;3.95;;;10.90;99.90;;;;;;5075032;28;20069;-78
2022/12/27 07:43:34;;;;;;;4.10;3.65;;;10.90;99.90;;;;;;5074852;28;20047;-78
2022/12/27 07:46:09;;;;;;;4.00;3.38;;;11.00;99.90;;;;;;5075040;28;20078;-78
2022/12/27 07:48:35;;;;;;;4.93;3.75;;;11.00;99.90;;;;;;5074727;28;20112;-78
2022/12/27 07:51:02;;;;;;;4.32;3.80;;;10.90;99.90;;;;;;5074633;28;20031;-78
2022/12/27 07:53:29;;;;;;;4.20;3.80;;;10.80;99.90;;;;;;5074841;28;20064;-78
2022/12/27 07:55:54;;;;;;;5.00;4.03;;;10.80;99.90;;;;;;5074999;28;20021;-78
2022/12/27 07:58:20;;;;;;;5.03;4.00;;;10.80;99.90;;;;;;5074644;28;20024;-78
2022/12/27 08:00:48;;;;;;;3.97;3.58;;;10.90;99.90;;;;;;5074823;28;20102;-79
2022/12/27 08:03:13;;;;;;;4.50;4.10;;;10.90;99.90;;;;;;5078626;28;20055;-78
2022/12/27 08:05:51;;;;;;;4.32;3.55;;;10.90;99.90;;;;;;5094653;28;20493;-78
2022/12/27 08:08:20;;;;;;;4.40;3.63;;;10.90;99.90;;;;;;5094480;28;20020;-78
2022/12/27 08:10:45;;;;;;;6.25;4.53;;;10.90;99.90;;;;;;5094698;28;20020;-78
2022/12/27 08:13:11;;;;;;;5.35;4.40;;;10.90;99.90;;;;;;5094498;28;20016;-78
2022/12/27 08:15:40;;;;;;;5.97;4.85;;;10.90;99.90;;;;;;5094123;28;20054;-78
2022/12/27 08:18:06;;;;;;;5.50;4.93;;;10.90;99.90;;;;;;5094347;28;20031;-78
2022/12/27 08:20:31;;;;;;;5.53;4.57;;;11.00;99.90;;;;;;5093969;28;20095;-78
2022/12/27 08:22:57;;;;;;;5.68;4.38;;;11.00;99.90;;;;;;5076563;28;20074;-78
2022/12/27 08:25:23;;;;;;;5.70;4.32;;;11.10;99.90;;;;;;5074229;28;20511;-78
2022/12/27 08:27:49;;;;;;;5.43;4.68;;;11.10;99.90;;;;;;5073843;28;20110;-78
2022/12/27 08:30:14;;;;;;;4.93;4.43;;;11.00;99.90;;;;;;5074087;28;20043;-78
2022/12/27 08:32:40;;;;;;;6.47;4.30;;;11.10;99.90;;;;;;5074013;28;20111;-78
2022/12/27 08:35:06;;;;;;;5.40;4.60;;;11.10;99.90;;;;;;5073799;28;20021;-78
2022/12/27 08:37:32;;;;;;;6.50;4.70;;;11.10;99.90;;;;;;5073911;28;20144;-78
2022/12/27 08:39:58;;;;;;;6.82;5.00;;;11.20;99.90;;;;;;5073876;28;20078;-78
2022/12/27 08:42:24;;;;;;;6.68;5.32;;;11.20;99.90;;;;;;5073717;28;20389;-78
2022/12/27 08:44:50;;;;;;;6.40;4.72;;;11.30;99.90;;;;;;5073827;28;20020;-78
2022/12/27 08:47:18;;;;;;;6.90;5.82;;;11.20;99.90;;;;;;5072638;28;20031;-78
2022/12/27 08:49:44;;;;;;;7.32;5.60;;;11.20;99.90;;;;;;5073539;28;20025;-78
2022/12/27 08:52:09;;;;;;;7.38;5.40;;;11.20;99.90;;;;;;5073582;28;20027;-78
2022/12/27 08:54:35;;;;;;;7.50;5.47;;;11.20;99.90;;;;;;5072206;28;20441;-78
2022/12/27 08:57:01;;;;;;;6.68;5.20;;;11.20;99.90;;;;;;5073145;28;20044;-78
2022/12/27 08:59:27;;;;;;;8.43;6.20;;;11.20;99.90;;;;;;5073628;28;20023;-78
2022/12/27 09:01:52;;;;;;;9.10;6.43;;;11.20;99.90;;;;;;5073162;28;20102;-78
2022/12/27 09:04:18;;;;;;;8.73;6.15;;;11.20;99.90;;;;;;5086054;28;20075;-78
2022/12/27 09:06:44;;;;;;;7.15;6.07;;;11.20;99.90;;;;;;5093634;28;20028;-80
2022/12/27 09:09:09;;;;;;;8.20;5.80;;;11.20;99.90;;;;;;5093587;28;20523;-80
2022/12/27 09:11:35;;;;;;;8.30;6.40;;;11.20;99.90;;;;;;5093047;28;20028;-80
2022/12/27 09:14:03;;;;;;;8.57;5.50;;;11.20;99.90;;;;;;5093577;28;20027;-80
2022/12/27 09:16:30;;;;;;;9.63;6.78;;;11.20;99.90;;;;;;5093312;28;20066;-77
2022/12/27 09:18:57;;;;;;;8.73;6.13;;;11.20;99.90;;;;;;5093213;28;20059;-78
2022/12/27 09:21:25;;;;;;;9.30;6.55;;;11.20;99.90;;;;;;5087016;28;20017;-78
2022/12/27 09:23:51;;;;;;;8.25;6.07;;;11.20;99.90;;;;;;5073082;28;20047;-78
2022/12/27 09:26:20;;;;;;;8.48;6.53;;;11.20;99.90;;;;;;5072825;28;20493;-78
2022/12/27 09:28:48;;;;;;;11.43;6.20;;;11.20;99.90;;;;;;5072751;28;20072;-78
2022/12/27 09:31:15;;;;;;;9.00;7.07;;;11.20;99.90;;;;;;5072668;28;20020;-78
2022/12/27 09:33:42;;;;;;;8.35;6.10;;;11.20;99.90;;;;;;5072763;28;20162;-79
2022/12/27 09:36:13;;;;;;;9.30;6.53;;;11.20;99.90;;;;;;5072575;28;20017;-80
2022/12/27 09:38:40;;;;;;;8.00;6.20;;;11.30;99.90;;;;;;5072876;28;20475;-80
2022/12/27 09:41:15;;;;;;;9.75;5.93;;;11.30;99.90;;;;;;5072657;28;20021;-80
2022/12/27 09:44:04;;;;;;;9.00;6.55;;;11.30;99.90;;;;;;5072593;28;20051;-80
2022/12/27 09:46:45;;;;;;;9.55;6.10;;;11.30;99.90;;;;;;5072478;28;20050;-80
2022/12/27 09:49:16;;;;;;;8.40;5.57;;;11.40;99.90;;;;;;5072599;28;20481;-80
2022/12/27 09:51:50;;;;;;;8.98;6.00;;;11.30;99.90;;;;;;5072387;28;20025;-80
2022/12/27 09:54:31;;;;;;;9.60;6.40;;;11.30;99.90;;;;;;5072589;28;20026;-80
2022/12/27 09:56:59;;;;;;;8.27;6.22;;;11.40;99.90;;;;;;5072041;28;20021;-80
2022/12/27 09:59:28;;;;;;;9.25;6.75;;;11.40;99.90;;;;;;5072578;28;20017;-80
2022/12/27 10:01:53;;;;;;;8.27;5.85;;;11.50;99.90;;;;;;5071905;28;20040;-80
2022/12/27 10:04:20;;;;;;;8.77;5.75;;;11.50;99.90;;;;;;5085525;28;20016;-80
2022/12/27 10:06:54;;;;;;;8.00;5.70;;;11.50;99.90;;;;;;5092578;28;20111;-79
2022/12/27 10:09:38;;;;;;;7.10;5.55;;;11.50;99.90;;;;;;5092718;28;20032;-80
2022/12/27 10:12:25;;;;;;;8.07;5.38;;;11.50;99.90;;;;;;5092365;28;20024;-80
2022/12/27 10:14:57;;;;;;;7.40;5.65;;;11.60;99.90;;;;;;5092578;28;20039;-80
2022/12/27 10:17:31;;;;;;;7.88;6.15;;;11.40;99.90;;;;;;5092241;28;20069;-79
2022/12/27 10:20:15;;;;;;;10.38;7.07;;;11.50;99.90;;;;;;5092548;28;20020;-80
2022/12/27 10:22:52;;;;;;;8.82;5.65;;;11.50;99.90;;;;;;5076903;28;20031;-80
2022/12/27 10:25:22;;;;;;;8.35;5.43;;;11.50;99.90;;;;;;5072294;28;20078;-80
2022/12/27 10:27:54;;;;;;;7.10;5.43;;;11.60;99.90;;;;;;5071722;28;20048;-80
2022/12/27 10:30:21;;;;;;;8.50;5.68;;;11.50;99.90;;;;;;5071986;28;20505;-80
2022/12/27 10:32:48;;;;;;;8.90;6.80;;;11.50;99.90;;;;;;5070341;28;20486;-80
2022/12/27 10:35:16;;;;;;;9.82;6.40;;;11.50;99.90;;;;;;5072149;28;20017;-80
2022/12/27 10:37:43;;;;;;;9.98;7.18;;;11.50;99.90;;;;;;5072220;28;20055;-80
2022/12/27 10:40:12;;;;;;;8.93;6.78;;;11.50;99.90;;;;;;5071829;28;20020;-80
2022/12/27 10:42:44;;;;;;;9.60;6.90;;;11.50;99.90;;;;;;5071834;28;20044;-80
2022/12/27 10:45:32;;;;;;;9.65;6.93;;;11.50;99.90;;;;;;5071708;28;20028;-80
2022/12/27 10:48:20;;;;;;;9.57;6.75;;;11.60;99.90;;;;;;5071880;28;20032;-80
2022/12/27 10:50:58;;;;;;;7.20;6.10;;;11.60;99.90;;;;;;5072174;28;20024;-80
2022/12/27 10:53:35;;;;;;;7.72;5.05;;;11.60;99.90;;;;;;5072099;28;20052;-80
2022/12/27 10:56:28;;;;;;;7.78;5.93;;;11.70;99.90;;;;;;5072044;28;20016;-80
2022/12/27 10:59:03;;;;;;;8.00;5.57;;;11.70;99.90;;;;;;5069404;28;20060;-80
2022/12/27 11:01:31;;;;;;;5.93;4.70;;;11.80;99.90;;;;;;5071527;28;20020;-80
2022/12/27 11:04:10;;;;;;;6.53;5.65;;;11.90;99.90;;;;;;5081809;28;20032;-80
2022/12/27 11:06:36;;;;;;;7.90;5.90;;;11.90;99.90;;;;;;5091981;28;20032;-80
2022/12/27 11:09:31;;;;;;;5.75;4.50;;;12.00;99.90;;;;;;5092592;28;20020;-80
2022/12/27 11:12:23;;;;;;;6.30;4.95;;;12.20;99.90;;;;;;5095667;28;20549;-80
2022/12/27 11:14:56;;;;;;;6.97;5.57;;;12.20;99.90;;;;;;5095722;28;20027;-79
2022/12/27 11:17:40;;;;;;;10.63;7.78;;;12.10;99.90;;;;;;5095487;28;20025;-80
2022/12/27 11:20:22;;;;;;;13.38;9.20;;;12.10;99.90;;;;;;5095964;28;20027;-80
2022/12/27 11:23:01;;;;;;;11.32;8.68;;;12.10;99.90;;;;;;5079033;28;20025;-80
2022/12/27 11:25:28;;;;;;;11.30;8.65;;;12.10;99.90;;;;;;5075524;28;20028;-80
2022/12/27 11:28:21;;;;;;;10.13;7.40;;;12.20;99.90;;;;;;5074931;28;20128;-80
2022/12/27 11:30:56;;;;;;;10.88;8.50;;;12.30;99.90;;;;;;5071600;28;20116;-80
2022/12/27 11:33:38;;;;;;;9.25;6.82;;;12.30;99.90;;;;;;5075459;28;20053;-80
2022/12/27 11:36:07;;;;;;;8.77;7.35;;;12.40;99.90;;;;;;5075380;28;20028;-80
2022/12/27 11:38:35;;;;;;;10.00;7.70;;;12.40;99.90;;;;;;5075065;28;20043;-80
2022/12/27 11:41:22;;;;;;;10.00;7.82;;;12.40;99.90;;;;;;5074876;28;20086;-79
2022/12/27 11:44:03;;;;;;;9.73;7.47;;;12.50;99.90;;;;;;5074917;28;20103;-80
2022/12/27 11:46:54;;;;;;;9.57;7.57;;;12.50;99.90;;;;;;5074557;28;20111;-80
2022/12/27 11:49:26;;;;;;;9.43;7.10;;;12.50;99.90;;;;;;5075248;28;20024;-80
2022/12/27 11:52:23;;;;;;;7.88;6.82;;;12.50;99.90;;;;;;5074713;28;20043;-79
2022/12/27 11:55:10;;;;;;;7.95;5.88;;;12.60;99.90;;;;;;5074921;28;20025;-80
2022/12/27 11:57:51;;;;;;;7.13;4.93;;;12.70;99.90;;;;;;5074437;28;20029;-80
2022/12/27 12:00:26;;;;;;;6.15;4.82;;;12.90;99.90;;;;;;5074488;28;20071;-80
2022/12/27 12:03:19;;;;;;;5.90;5.05;;;12.90;99.90;;;;;;5075459;28;20089;-80
2022/12/27 12:06:05;;;;;;;5.93;4.97;;;12.90;99.90;;;;;;5094785;28;20024;-80
2022/12/27 12:08:49;;;;;;;6.90;5.57;;;12.90;99.90;;;;;;5094844;28;20028;-80
2022/12/27 12:11:43;;;;;;;6.00;5.05;;;12.80;99.90;;;;;;5094689;28;20024;-80
2022/12/27 12:14:26;;;;;;;7.68;5.40;;;12.80;99.90;;;;;;5094858;28;20039;-80
2022/12/27 12:16:55;;;;;;;6.90;4.82;;;12.80;99.90;;;;;;5094055;28;20028;-80
2022/12/27 12:19:29;;;;;;;5.20;4.35;;;12.80;99.90;;;;;;5094861;28;20051;-80
2022/12/27 12:22:16;;;;;;;8.27;4.82;;;12.90;99.90;;;;;;5084900;28;20039;-80
2022/12/27 12:25:28;;;;;;;5.25;3.85;;;12.70;99.90;;;;;;5074554;28;20020;-80
2022/12/27 12:28:15;;;;;;;5.72;4.35;;;12.80;99.90;;;;;;5073707;28;20055;-80
2022/12/27 12:30:57;;;;;;;4.10;3.65;;;12.80;99.90;;;;;;5074187;28;20016;-80
2022/12/27 12:33:42;;;;;;;6.57;4.30;;;12.90;99.90;;;;;;5074086;28;20036;-80
2022/12/27 12:36:29;;;;;;;4.55;3.78;;;12.80;99.90;;;;;;5073977;28;20036;-80
2022/12/27 12:38:57;;;;;;;5.28;3.97;;;12.80;99.90;;;;;;5073717;28;20020;-80
2022/12/27 12:42:01;;;;;;;4.32;3.35;;;12.80;99.90;;;;;;5073502;28;20048;-80
2022/12/27 12:45:04;;;;;;;5.10;3.58;;;12.80;99.90;;;;;;5011704;28;20530;-80
2022/12/27 12:48:00;;;;;;;5.05;3.72;;;12.70;99.90;;;;;;5011468;28;20034;-80
2022/12/27 12:50:55;;;;;;;4.88;3.97;;;12.70;99.90;;;;;;5011625;28;20034;-80
2022/12/27 12:53:39;;;;;;;5.18;3.33;;;12.70;99.90;;;;;;5011348;28;20030;-80
2022/12/27 12:56:29;;;;;;;6.22;3.80;;;12.70;99.90;;;;;;5011285;28;20034;-80
2022/12/27 12:59:09;;;;;;;4.43;3.50;;;12.70;99.90;;;;;;5011407;28;20030;-80
2022/12/27 13:02:01;;;;;;;5.27;3.90;;;12.70;99.90;;;;;;5011095;28;20089;-80
2022/12/27 13:04:26;;;;;;;4.30;3.90;;;12.70;99.90;;;;;;5024961;28;20261;-80
2022/12/27 13:07:05;;;;;;;4.90;4.00;;;12.80;99.90;;;;;;5030907;28;20045;-80
2022/12/27 13:10:01;;;;;;;4.05;3.45;;;12.90;99.90;;;;;;5014737;28;20055;-80
2022/12/27 13:12:32;;;;;;;4.32;3.35;;;12.90;99.90;;;;;;5030510;28;20075;-80
2022/12/27 13:15:07;;;;;;;3.20;2.80;;;13.00;99.90;;;;;;5014283;28;20030;-80
2022/12/27 13:18:02;;;;;;;3.35;2.92;;;13.10;99.90;;;;;;5030376;28;20036;-80
2022/12/27 13:20:27;;;;;;;3.45;3.00;;;13.20;99.90;;;;;;5042106;28;20036;-80
2022/12/27 13:23:05;;;;;;;3.72;3.15;;;13.30;99.90;;;;;;5074344;28;20415;-80
2022/12/27 13:25:58;;;;;;;3.85;3.00;;;13.30;99.90;;;;;;5073066;28;20047;-80
2022/12/27 13:28:30;;;;;;;3.35;3.05;;;13.40;99.90;;;;;;5073005;28;20052;-80
2022/12/27 13:30:58;;;;;;;;;;;13.60;99.90;;;;;;5073319;28;20024;-80
2022/12/27 13:33:36;;;;;;;3.80;3.50;;;13.70;99.90;;;;;;5070586;28;19919;-80
2022/12/27 13:36:05;;;;;;;3.83;3.20;;;13.70;99.90;;;;;;5072798;28;20104;-80
2022/12/27 13:39:00;;;;;;;4.72;3.47;;;13.60;99.90;;;;;;5072800;28;20095;-80
2022/12/27 13:41:43;;;;;;;3.95;3.58;;;13.40;99.90;;;;;;5072710;28;20048;-80
2022/12/27 13:44:31;;;;;;;3.78;3.30;;;13.30;99.90;;;;;;5072916;28;20020;-79
2022/12/27 13:47:22;;;;;;;4.28;3.30;;;13.30;99.90;;;;;;5072401;28;20025;-80
2022/12/27 13:50:02;;;;;;;3.58;3.03;;;13.20;99.90;;;;;;5072750;28;20485;-80
2022/12/27 13:52:47;;;;;;;;;;;13.10;99.90;;;;;;5072773;28;20074;-80
2022/12/27 13:55:37;;;;;;;4.97;3.42;;;13.10;99.90;;;;;;5072437;28;19940;-80
2022/12/27 13:58:26;;;;;;;4.68;3.10;;;13.10;99.90;;;;;;5072646;28;20056;-80
2022/12/27 14:01:28;;;;;;;3.63;3.00;;;13.20;99.90;;;;;;5072519;28;20028;-80
2022/12/27 14:04:08;;;;;;;4.30;3.20;;;13.10;99.90;;;;;;5082051;28;20058;-80
2022/12/27 14:07:01;;;;;;;4.18;3.30;;;13.00;99.90;;;;;;5092759;28;20031;-80
2022/12/27 14:09:55;;;;;;;3.58;3.28;;;13.00;99.90;;;;;;5092202;28;20107;-79
2022/12/27 14:12:48;;;;;;;4.22;3.50;;;13.00;99.90;;;;;;5092057;28;20066;-80
2022/12/27 14:15:21;;;;;;;3.78;3.45;;;13.00;99.90;;;;;;5092787;28;20016;-79
2022/12/27 14:18:13;;;;;;;5.03;3.85;;;13.00;99.90;;;;;;5092075;28;20024;-80
2022/12/27 14:21:02;;;;;;;4.13;3.70;;;13.00;99.90;;;;;;5092664;28;20016;-80
2022/12/27 14:24:12;;;;;;;3.85;3.28;;;13.00;99.90;;;;;;5051833;28;20037;-80
2022/12/27 14:27:05;;;;;;;3.60;3.03;;;13.00;99.90;;;;;;4990282;28;20118;-80
2022/12/27 14:30:18;;;;;;;3.30;2.95;;;13.00;99.90;;;;;;4990336;28;20039;-80
2022/12/27 14:33:05;;;;;;;3.67;2.78;;;13.00;99.90;;;;;;4990148;28;20093;-80
2022/12/27 14:36:08;;;;;;;3.40;2.75;;;13.10;99.90;;;;;;4990466;28;20034;-80
2022/12/27 14:38:57;;;;;;;3.17;2.88;;;13.10;99.90;;;;;;5003312;28;20101;-80
2022/12/27 14:41:41;;;;;;;3.63;3.15;;;13.10;99.90;;;;;;5009670;28;20217;-80
2022/12/27 14:44:40;;;;;;;3.28;2.97;;;13.10;99.90;;;;;;5012221;28;20033;-80
2022/12/27 14:47:11;;;;;;;3.38;2.92;;;13.10;99.90;;;;;;5013744;28;20022;-80
2022/12/27 14:50:13;;;;;;;3.60;2.80;;;13.10;99.90;;;;;;5013731;28;20061;-80
2022/12/27 14:53:16;;;;;;;3.65;3.10;;;13.10;99.90;;;;;;5013505;28;20116;-80
2022/12/27 14:56:18;;;;;;;4.13;2.85;;;13.10;99.90;;;;;;5013981;28;20088;-80
2022/12/27 14:59:12;;;;;;;3.22;2.88;;;13.00;99.90;;;;;;5013621;28;20037;-80